sensor_id;sensor_type;location;lat;lon;timestamp;P1;durP1;ratioP1;P2;durP2;ratioP2
61108;SDS011;46995;55.740;37.402;2022-12-18T00:01:52;20.23;;;10.57;;
61108;SDS011;46995;55.740;37.402;2022-12-18T00:04:22;21.38;;;11.38;;
61108;SDS011;46995;55.740;37.402;2022-12-18T00:06:50;21.42;;;10.73;;
61108;SDS011;46995;55.740;37.402;2022-12-18T00:09:16;22.67;;;10.27;;
61108;SDS011;46995;55.740;37.402;2022-12-18T00:11:42;16.50;;;9.82;;
61108;SDS011;46995;55.740;37.402;2022-12-18T00:14:08;20.10;;;11.05;;
61108;SDS011;46995;55.740;37.402;2022-12-18T00:16:36;20.40;;;10.68;;
61108;SDS011;46995;55.740;37.402;2022-12-18T00:19:02;21.10;;;10.63;;
61108;SDS011;46995;55.740;37.402;2022-12-18T00:21:29;17.63;;;10.43;;
61108;SDS011;46995;55.740;37.402;2022-12-18T00:23:57;18.10;;;10.00;;
61108;SDS011;46995;55.740;37.402;2022-12-18T00:26:25;22.08;;;10.45;;
61108;SDS011;46995;55.740;37.402;2022-12-18T00:29:00;25.88;;;12.63;;
61108;SDS011;46995;55.740;37.402;2022-12-18T00:31:28;20.13;;;10.35;;
61108;SDS011;46995;55.740;37.402;2022-12-18T00:33:55;21.88;;;11.07;;
61108;SDS011;46995;55.740;37.402;2022-12-18T00:36:23;19.08;;;10.63;;
61108;SDS011;46995;55.740;37.402;2022-12-18T00:38:55;19.42;;;10.75;;
61108;SDS011;46995;55.740;37.402;2022-12-18T00:41:22;23.27;;;10.30;;
61108;SDS011;46995;55.740;37.402;2022-12-18T00:44:07;20.25;;;10.32;;
61108;SDS011;46995;55.740;37.402;2022-12-18T00:46:35;19.60;;;10.75;;
61108;SDS011;46995;55.740;37.402;2022-12-18T00:49:01;17.45;;;10.40;;
61108;SDS011;46995;55.740;37.402;2022-12-18T00:51:27;21.02;;;11.27;;
61108;SDS011;46995;55.740;37.402;2022-12-18T00:53:54;20.38;;;10.27;;
61108;SDS011;46995;55.740;37.402;2022-12-18T00:56:22;20.13;;;10.27;;
61108;SDS011;46995;55.740;37.402;2022-12-18T00:58:49;20.67;;;9.40;;
61108;SDS011;46995;55.740;37.402;2022-12-18T01:01:15;18.33;;;10.48;;
61108;SDS011;46995;55.740;37.402;2022-12-18T01:03:42;17.50;;;9.60;;
61108;SDS011;46995;55.740;37.402;2022-12-18T01:06:11;20.52;;;10.55;;
61108;SDS011;46995;55.740;37.402;2022-12-18T01:08:37;19.23;;;10.75;;
61108;SDS011;46995;55.740;37.402;2022-12-18T01:11:10;22.23;;;10.97;;
61108;SDS011;46995;55.740;37.402;2022-12-18T01:13:40;20.90;;;10.60;;
61108;SDS011;46995;55.740;37.402;2022-12-18T01:16:07;19.05;;;10.27;;
61108;SDS011;46995;55.740;37.402;2022-12-18T01:18:34;19.67;;;9.65;;
61108;SDS011;46995;55.740;37.402;2022-12-18T01:21:00;19.27;;;10.25;;
61108;SDS011;46995;55.740;37.402;2022-12-18T01:23:26;16.33;;;10.07;;
61108;SDS011;46995;55.740;37.402;2022-12-18T01:25:52;18.52;;;10.60;;
61108;SDS011;46995;55.740;37.402;2022-12-18T01:28:17;18.77;;;10.00;;
61108;SDS011;46995;55.740;37.402;2022-12-18T01:30:44;18.77;;;10.80;;
61108;SDS011;46995;55.740;37.402;2022-12-18T01:33:11;22.05;;;9.98;;
61108;SDS011;46995;55.740;37.402;2022-12-18T01:35:41;19.08;;;10.57;;
61108;SDS011;46995;55.740;37.402;2022-12-18T01:38:07;16.73;;;9.57;;
61108;SDS011;46995;55.740;37.402;2022-12-18T01:40:33;18.25;;;10.35;;
61108;SDS011;46995;55.740;37.402;2022-12-18T01:43:01;20.25;;;10.32;;
61108;SDS011;46995;55.740;37.402;2022-12-18T01:45:27;20.05;;;10.68;;
61108;SDS011;46995;55.740;37.402;2022-12-18T01:48:02;18.83;;;10.20;;
61108;SDS011;46995;55.740;37.402;2022-12-18T01:53:10;20.52;;;11.60;;
61108;SDS011;46995;55.740;37.402;2022-12-18T01:55:43;17.05;;;8.98;;
61108;SDS011;46995;55.740;37.402;2022-12-18T01:58:13;14.07;;;8.45;;
61108;SDS011;46995;55.740;37.402;2022-12-18T02:00:42;17.25;;;9.15;;
61108;SDS011;46995;55.740;37.402;2022-12-18T02:03:08;16.98;;;9.55;;
61108;SDS011;46995;55.740;37.402;2022-12-18T02:08:24;18.40;;;9.38;;
61108;SDS011;46995;55.740;37.402;2022-12-18T02:21:55;14.43;;;8.05;;
61108;SDS011;46995;55.740;37.402;2022-12-18T02:27:31;18.85;;;9.23;;
61108;SDS011;46995;55.740;37.402;2022-12-18T02:29:59;16.50;;;8.65;;
61108;SDS011;46995;55.740;37.402;2022-12-18T02:32:31;14.23;;;8.30;;
61108;SDS011;46995;55.740;37.402;2022-12-18T02:35:02;14.85;;;8.55;;
61108;SDS011;46995;55.740;37.402;2022-12-18T02:37:31;13.80;;;7.50;;
61108;SDS011;46995;55.740;37.402;2022-12-18T02:40:02;18.25;;;9.02;;
61108;SDS011;46995;55.740;37.402;2022-12-18T02:42:30;16.83;;;8.93;;
61108;SDS011;46995;55.740;37.402;2022-12-18T02:44:58;16.67;;;9.48;;
61108;SDS011;46995;55.740;37.402;2022-12-18T02:47:27;16.45;;;8.23;;
61108;SDS011;46995;55.740;37.402;2022-12-18T02:55:59;12.18;;;6.88;;
61108;SDS011;46995;55.740;37.402;2022-12-18T03:04:07;12.40;;;8.07;;
61108;SDS011;46995;55.740;37.402;2022-12-18T03:06:35;16.45;;;7.82;;
61108;SDS011;46995;55.740;37.402;2022-12-18T03:09:11;15.73;;;8.05;;
61108;SDS011;46995;55.740;37.402;2022-12-18T03:11:41;14.85;;;8.23;;
61108;SDS011;46995;55.740;37.402;2022-12-18T03:14:36;14.52;;;7.55;;
61108;SDS011;46995;55.740;37.402;2022-12-18T03:17:08;13.30;;;7.85;;
61108;SDS011;46995;55.740;37.402;2022-12-18T03:19:38;12.13;;;7.43;;
61108;SDS011;46995;55.740;37.402;2022-12-18T03:22:05;14.20;;;8.00;;
61108;SDS011;46995;55.740;37.402;2022-12-18T03:24:41;17.33;;;8.52;;
61108;SDS011;46995;55.740;37.402;2022-12-18T03:27:11;13.90;;;7.95;;
61108;SDS011;46995;55.740;37.402;2022-12-18T03:29:46;14.68;;;7.85;;
61108;SDS011;46995;55.740;37.402;2022-12-18T03:32:25;14.90;;;8.10;;
61108;SDS011;46995;55.740;37.402;2022-12-18T03:34:58;18.52;;;7.53;;
61108;SDS011;46995;55.740;37.402;2022-12-18T03:37:31;13.90;;;7.35;;
61108;SDS011;46995;55.740;37.402;2022-12-18T03:39:58;14.88;;;8.10;;
61108;SDS011;46995;55.740;37.402;2022-12-18T03:45:09;14.57;;;7.75;;
61108;SDS011;46995;55.740;37.402;2022-12-18T03:50:40;13.30;;;7.28;;
61108;SDS011;46995;55.740;37.402;2022-12-18T03:55:51;17.30;;;7.45;;
61108;SDS011;46995;55.740;37.402;2022-12-18T03:58:20;11.77;;;6.85;;
61108;SDS011;46995;55.740;37.402;2022-12-18T04:01:13;11.85;;;6.95;;
61108;SDS011;46995;55.740;37.402;2022-12-18T04:03:42;13.00;;;7.90;;
61108;SDS011;46995;55.740;37.402;2022-12-18T04:06:10;12.18;;;6.75;;
61108;SDS011;46995;55.740;37.402;2022-12-18T04:08:39;11.65;;;7.18;;
61108;SDS011;46995;55.740;37.402;2022-12-18T04:11:08;12.10;;;6.95;;
61108;SDS011;46995;55.740;37.402;2022-12-18T04:13:35;12.90;;;7.13;;
61108;SDS011;46995;55.740;37.402;2022-12-18T04:16:06;14.25;;;6.88;;
61108;SDS011;46995;55.740;37.402;2022-12-18T04:18:32;14.02;;;7.38;;
61108;SDS011;46995;55.740;37.402;2022-12-18T04:21:00;12.27;;;6.75;;
61108;SDS011;46995;55.740;37.402;2022-12-18T04:23:27;9.18;;;5.75;;
61108;SDS011;46995;55.740;37.402;2022-12-18T04:25:56;15.23;;;7.28;;
61108;SDS011;46995;55.740;37.402;2022-12-18T04:28:36;13.82;;;7.13;;
61108;SDS011;46995;55.740;37.402;2022-12-18T04:31:02;13.40;;;6.43;;
61108;SDS011;46995;55.740;37.402;2022-12-18T04:33:28;13.75;;;6.50;;
61108;SDS011;46995;55.740;37.402;2022-12-18T04:35:54;8.93;;;5.50;;
61108;SDS011;46995;55.740;37.402;2022-12-18T04:38:20;9.38;;;5.72;;
61108;SDS011;46995;55.740;37.402;2022-12-18T04:40:52;11.82;;;7.18;;
61108;SDS011;46995;55.740;37.402;2022-12-18T04:43:25;15.32;;;6.20;;
61108;SDS011;46995;55.740;37.402;2022-12-18T04:45:51;11.75;;;5.90;;
61108;SDS011;46995;55.740;37.402;2022-12-18T04:48:16;15.07;;;7.05;;
61108;SDS011;46995;55.740;37.402;2022-12-18T04:50:43;10.48;;;5.93;;
61108;SDS011;46995;55.740;37.402;2022-12-18T04:53:08;13.60;;;7.10;;
61108;SDS011;46995;55.740;37.402;2022-12-18T04:55:34;12.50;;;6.35;;
61108;SDS011;46995;55.740;37.402;2022-12-18T04:58:00;8.60;;;5.03;;
61108;SDS011;46995;55.740;37.402;2022-12-18T05:00:26;10.00;;;5.38;;
61108;SDS011;46995;55.740;37.402;2022-12-18T05:02:51;11.60;;;7.07;;
61108;SDS011;46995;55.740;37.402;2022-12-18T05:05:17;10.85;;;5.53;;
61108;SDS011;46995;55.740;37.402;2022-12-18T05:07:43;11.75;;;6.28;;
61108;SDS011;46995;55.740;37.402;2022-12-18T05:10:09;15.75;;;5.97;;
61108;SDS011;46995;55.740;37.402;2022-12-18T05:12:35;10.90;;;5.68;;
61108;SDS011;46995;55.740;37.402;2022-12-18T05:15:22;11.25;;;5.88;;
61108;SDS011;46995;55.740;37.402;2022-12-18T05:17:51;9.70;;;5.97;;
61108;SDS011;46995;55.740;37.402;2022-12-18T05:20:17;11.05;;;6.38;;
61108;SDS011;46995;55.740;37.402;2022-12-18T05:22:43;11.32;;;6.22;;
61108;SDS011;46995;55.740;37.402;2022-12-18T05:25:09;13.93;;;6.53;;
61108;SDS011;46995;55.740;37.402;2022-12-18T05:27:36;12.48;;;6.32;;
61108;SDS011;46995;55.740;37.402;2022-12-18T05:30:02;11.27;;;5.85;;
61108;SDS011;46995;55.740;37.402;2022-12-18T05:32:29;9.00;;;5.22;;
61108;SDS011;46995;55.740;37.402;2022-12-18T05:34:55;12.13;;;5.82;;
61108;SDS011;46995;55.740;37.402;2022-12-18T05:37:22;10.43;;;6.35;;
61108;SDS011;46995;55.740;37.402;2022-12-18T05:39:48;12.20;;;7.15;;
61108;SDS011;46995;55.740;37.402;2022-12-18T05:42:14;10.52;;;6.28;;
61108;SDS011;46995;55.740;37.402;2022-12-18T05:44:39;12.13;;;6.68;;
61108;SDS011;46995;55.740;37.402;2022-12-18T05:47:05;11.00;;;5.53;;
61108;SDS011;46995;55.740;37.402;2022-12-18T05:49:31;9.43;;;5.20;;
61108;SDS011;46995;55.740;37.402;2022-12-18T05:51:57;9.32;;;5.60;;
61108;SDS011;46995;55.740;37.402;2022-12-18T05:54:23;13.95;;;6.38;;
61108;SDS011;46995;55.740;37.402;2022-12-18T05:56:48;9.70;;;4.90;;
61108;SDS011;46995;55.740;37.402;2022-12-18T05:59:14;11.50;;;6.45;;
61108;SDS011;46995;55.740;37.402;2022-12-18T06:01:40;13.48;;;6.63;;
61108;SDS011;46995;55.740;37.402;2022-12-18T06:04:06;13.98;;;6.78;;
61108;SDS011;46995;55.740;37.402;2022-12-18T06:06:32;10.52;;;6.40;;
61108;SDS011;46995;55.740;37.402;2022-12-18T06:08:57;12.15;;;6.50;;
61108;SDS011;46995;55.740;37.402;2022-12-18T06:11:24;11.93;;;6.13;;
61108;SDS011;46995;55.740;37.402;2022-12-18T06:13:52;10.65;;;6.63;;
61108;SDS011;46995;55.740;37.402;2022-12-18T06:16:19;15.55;;;7.78;;
61108;SDS011;46995;55.740;37.402;2022-12-18T06:18:45;12.35;;;6.13;;
61108;SDS011;46995;55.740;37.402;2022-12-18T06:21:11;11.85;;;6.60;;
61108;SDS011;46995;55.740;37.402;2022-12-18T06:23:37;9.48;;;5.25;;
61108;SDS011;46995;55.740;37.402;2022-12-18T06:26:06;8.45;;;5.32;;
61108;SDS011;46995;55.740;37.402;2022-12-18T06:28:33;12.98;;;5.18;;
61108;SDS011;46995;55.740;37.402;2022-12-18T06:31:04;8.77;;;5.45;;
61108;SDS011;46995;55.740;37.402;2022-12-18T06:33:31;10.18;;;5.38;;
61108;SDS011;46995;55.740;37.402;2022-12-18T06:36:04;11.93;;;6.18;;
61108;SDS011;46995;55.740;37.402;2022-12-18T06:38:35;8.35;;;5.20;;
61108;SDS011;46995;55.740;37.402;2022-12-18T06:41:06;8.68;;;4.95;;
61108;SDS011;46995;55.740;37.402;2022-12-18T06:43:42;12.40;;;4.95;;
61108;SDS011;46995;55.740;37.402;2022-12-18T06:46:08;8.63;;;4.80;;
61108;SDS011;46995;55.740;37.402;2022-12-18T06:48:35;10.45;;;5.15;;
61108;SDS011;46995;55.740;37.402;2022-12-18T06:51:01;12.40;;;5.25;;
61108;SDS011;46995;55.740;37.402;2022-12-18T06:53:27;6.65;;;3.90;;
61108;SDS011;46995;55.740;37.402;2022-12-18T06:55:58;15.60;;;6.65;;
61108;SDS011;46995;55.740;37.402;2022-12-18T06:58:28;10.23;;;5.13;;
61108;SDS011;46995;55.740;37.402;2022-12-18T07:00:58;9.00;;;5.53;;
61108;SDS011;46995;55.740;37.402;2022-12-18T07:03:31;7.10;;;4.97;;
61108;SDS011;46995;55.740;37.402;2022-12-18T07:05:58;10.52;;;5.25;;
61108;SDS011;46995;55.740;37.402;2022-12-18T07:08:23;7.55;;;4.07;;
61108;SDS011;46995;55.740;37.402;2022-12-18T07:10:50;10.00;;;4.15;;
61108;SDS011;46995;55.740;37.402;2022-12-18T07:13:16;10.38;;;5.78;;
61108;SDS011;46995;55.740;37.402;2022-12-18T07:15:43;9.13;;;4.20;;
61108;SDS011;46995;55.740;37.402;2022-12-18T07:18:09;8.52;;;4.63;;
61108;SDS011;46995;55.740;37.402;2022-12-18T07:20:35;14.13;;;5.28;;
61108;SDS011;46995;55.740;37.402;2022-12-18T07:23:04;9.25;;;3.97;;
61108;SDS011;46995;55.740;37.402;2022-12-18T07:25:37;8.80;;;5.32;;
61108;SDS011;46995;55.740;37.402;2022-12-18T07:28:03;12.05;;;5.35;;
61108;SDS011;46995;55.740;37.402;2022-12-18T07:30:29;6.55;;;3.67;;
61108;SDS011;46995;55.740;37.402;2022-12-18T07:32:55;8.00;;;4.38;;
61108;SDS011;46995;55.740;37.402;2022-12-18T07:35:21;7.22;;;4.65;;
61108;SDS011;46995;55.740;37.402;2022-12-18T07:37:46;9.95;;;4.97;;
61108;SDS011;46995;55.740;37.402;2022-12-18T07:40:14;9.88;;;5.78;;
61108;SDS011;46995;55.740;37.402;2022-12-18T07:42:39;11.57;;;5.65;;
61108;SDS011;46995;55.740;37.402;2022-12-18T07:45:05;8.10;;;5.40;;
61108;SDS011;46995;55.740;37.402;2022-12-18T07:47:33;8.05;;;4.93;;
61108;SDS011;46995;55.740;37.402;2022-12-18T07:50:01;14.05;;;5.40;;
61108;SDS011;46995;55.740;37.402;2022-12-18T07:52:28;11.95;;;4.95;;
61108;SDS011;46995;55.740;37.402;2022-12-18T07:54:54;10.25;;;5.72;;
61108;SDS011;46995;55.740;37.402;2022-12-18T07:57:19;9.45;;;4.50;;
61108;SDS011;46995;55.740;37.402;2022-12-18T07:59:45;12.77;;;6.35;;
61108;SDS011;46995;55.740;37.402;2022-12-18T08:02:11;8.10;;;4.85;;
61108;SDS011;46995;55.740;37.402;2022-12-18T08:04:37;14.15;;;4.80;;
61108;SDS011;46995;55.740;37.402;2022-12-18T08:07:03;7.75;;;4.57;;
61108;SDS011;46995;55.740;37.402;2022-12-18T08:09:28;11.57;;;4.97;;
61108;SDS011;46995;55.740;37.402;2022-12-18T08:11:54;10.70;;;4.30;;
61108;SDS011;46995;55.740;37.402;2022-12-18T08:14:20;12.93;;;5.15;;
61108;SDS011;46995;55.740;37.402;2022-12-18T08:16:45;12.80;;;5.30;;
61108;SDS011;46995;55.740;37.402;2022-12-18T08:19:11;10.20;;;5.57;;
61108;SDS011;46995;55.740;37.402;2022-12-18T08:21:37;12.05;;;5.85;;
61108;SDS011;46995;55.740;37.402;2022-12-18T08:24:04;8.98;;;5.32;;
61108;SDS011;46995;55.740;37.402;2022-12-18T08:26:30;9.90;;;5.47;;
61108;SDS011;46995;55.740;37.402;2022-12-18T08:28:57;7.22;;;4.82;;
61108;SDS011;46995;55.740;37.402;2022-12-18T08:31:24;8.30;;;4.63;;
61108;SDS011;46995;55.740;37.402;2022-12-18T08:33:52;10.40;;;5.25;;
61108;SDS011;46995;55.740;37.402;2022-12-18T08:36:18;12.82;;;5.55;;
61108;SDS011;46995;55.740;37.402;2022-12-18T08:38:45;9.85;;;5.82;;
61108;SDS011;46995;55.740;37.402;2022-12-18T08:41:12;11.53;;;5.60;;
61108;SDS011;46995;55.740;37.402;2022-12-18T08:43:40;11.90;;;4.75;;
61108;SDS011;46995;55.740;37.402;2022-12-18T08:46:25;12.88;;;6.03;;
61108;SDS011;46995;55.740;37.402;2022-12-18T08:48:52;12.30;;;5.47;;
61108;SDS011;46995;55.740;37.402;2022-12-18T08:51:19;10.63;;;5.40;;
61108;SDS011;46995;55.740;37.402;2022-12-18T08:53:46;9.93;;;4.93;;
61108;SDS011;46995;55.740;37.402;2022-12-18T08:56:12;8.02;;;4.15;;
61108;SDS011;46995;55.740;37.402;2022-12-18T08:58:39;9.95;;;4.82;;
61108;SDS011;46995;55.740;37.402;2022-12-18T09:01:06;10.45;;;5.13;;
61108;SDS011;46995;55.740;37.402;2022-12-18T09:03:38;6.82;;;3.65;;
61108;SDS011;46995;55.740;37.402;2022-12-18T09:06:04;10.10;;;5.45;;
61108;SDS011;46995;55.740;37.402;2022-12-18T09:08:31;12.20;;;5.47;;
61108;SDS011;46995;55.740;37.402;2022-12-18T09:10:56;9.68;;;4.90;;
61108;SDS011;46995;55.740;37.402;2022-12-18T09:13:22;9.43;;;5.57;;
61108;SDS011;46995;55.740;37.402;2022-12-18T09:15:49;11.93;;;4.65;;
61108;SDS011;46995;55.740;37.402;2022-12-18T09:18:17;7.32;;;4.50;;
61108;SDS011;46995;55.740;37.402;2022-12-18T09:23:10;7.97;;;4.15;;
61108;SDS011;46995;55.740;37.402;2022-12-18T09:25:39;10.02;;;4.50;;
61108;SDS011;46995;55.740;37.402;2022-12-18T09:30:34;7.93;;;4.00;;
61108;SDS011;46995;55.740;37.402;2022-12-18T09:33:03;7.43;;;3.45;;
61108;SDS011;46995;55.740;37.402;2022-12-18T09:35:30;7.38;;;4.45;;
61108;SDS011;46995;55.740;37.402;2022-12-18T09:37:56;7.70;;;3.92;;
61108;SDS011;46995;55.740;37.402;2022-12-18T09:40:23;6.53;;;3.70;;
61108;SDS011;46995;55.740;37.402;2022-12-18T09:42:52;8.32;;;3.97;;
61108;SDS011;46995;55.740;37.402;2022-12-18T09:45:23;7.60;;;3.75;;
61108;SDS011;46995;55.740;37.402;2022-12-18T09:47:49;5.03;;;3.08;;
61108;SDS011;46995;55.740;37.402;2022-12-18T09:52:50;10.60;;;4.20;;
61108;SDS011;46995;55.740;37.402;2022-12-18T09:57:47;9.02;;;4.00;;
61108;SDS011;46995;55.740;37.402;2022-12-18T10:00:19;5.47;;;2.75;;
61108;SDS011;46995;55.740;37.402;2022-12-18T10:02:46;7.22;;;3.75;;
61108;SDS011;46995;55.740;37.402;2022-12-18T10:05:15;6.18;;;3.83;;
61108;SDS011;46995;55.740;37.402;2022-12-18T10:08:07;8.05;;;4.00;;
61108;SDS011;46995;55.740;37.402;2022-12-18T10:10:48;5.78;;;2.97;;
61108;SDS011;46995;55.740;37.402;2022-12-18T10:16:12;9.07;;;2.95;;
61108;SDS011;46995;55.740;37.402;2022-12-18T10:18:50;4.68;;;2.47;;
61108;SDS011;46995;55.740;37.402;2022-12-18T10:27:21;7.00;;;3.38;;
61108;SDS011;46995;55.740;37.402;2022-12-18T10:29:50;4.78;;;2.67;;
61108;SDS011;46995;55.740;37.402;2022-12-18T10:32:22;7.05;;;3.33;;
61108;SDS011;46995;55.740;37.402;2022-12-18T10:34:52;4.60;;;3.08;;
61108;SDS011;46995;55.740;37.402;2022-12-18T10:37:20;7.95;;;2.95;;
61108;SDS011;46995;55.740;37.402;2022-12-18T10:40:06;7.55;;;3.10;;
61108;SDS011;46995;55.740;37.402;2022-12-18T10:42:32;4.47;;;3.05;;
61108;SDS011;46995;55.740;37.402;2022-12-18T10:45:16;7.88;;;3.15;;
61108;SDS011;46995;55.740;37.402;2022-12-18T10:47:46;7.65;;;3.53;;
61108;SDS011;46995;55.740;37.402;2022-12-18T10:53:14;5.90;;;2.95;;
61108;SDS011;46995;55.740;37.402;2022-12-18T10:55:48;6.78;;;2.78;;
61108;SDS011;46995;55.740;37.402;2022-12-18T11:06:09;2.65;;;1.73;;
61108;SDS011;46995;55.740;37.402;2022-12-18T11:08:35;2.80;;;1.88;;
61108;SDS011;46995;55.740;37.402;2022-12-18T11:11:02;3.22;;;1.70;;
61108;SDS011;46995;55.740;37.402;2022-12-18T11:13:32;5.32;;;2.72;;
61108;SDS011;46995;55.740;37.402;2022-12-18T11:16:21;10.82;;;3.33;;
61108;SDS011;46995;55.740;37.402;2022-12-18T11:18:46;5.32;;;2.40;;
61108;SDS011;46995;55.740;37.402;2022-12-18T11:21:12;5.65;;;3.08;;
61108;SDS011;46995;55.740;37.402;2022-12-18T11:23:52;3.88;;;2.83;;
61108;SDS011;46995;55.740;37.402;2022-12-18T11:26:19;5.57;;;2.40;;
61108;SDS011;46995;55.740;37.402;2022-12-18T11:29:09;5.50;;;3.15;;
61108;SDS011;46995;55.740;37.402;2022-12-18T11:31:41;4.05;;;2.17;;
61108;SDS011;46995;55.740;37.402;2022-12-18T11:34:10;5.65;;;3.33;;
61108;SDS011;46995;55.740;37.402;2022-12-18T11:36:42;6.80;;;3.03;;
61108;SDS011;46995;55.740;37.402;2022-12-18T11:45:17;5.82;;;2.78;;
61108;SDS011;46995;55.740;37.402;2022-12-18T11:48:04;6.25;;;2.97;;
61108;SDS011;46995;55.740;37.402;2022-12-18T11:50:54;6.68;;;1.70;;
61108;SDS011;46995;55.740;37.402;2022-12-18T11:53:21;5.35;;;2.70;;
61108;SDS011;46995;55.740;37.402;2022-12-18T11:56:02;3.53;;;1.85;;
61108;SDS011;46995;55.740;37.402;2022-12-18T11:58:50;4.47;;;2.63;;
61108;SDS011;46995;55.740;37.402;2022-12-18T12:09:55;5.43;;;1.95;;
61108;SDS011;46995;55.740;37.402;2022-12-18T12:12:39;3.65;;;2.17;;
61108;SDS011;46995;55.740;37.402;2022-12-18T12:15:27;6.63;;;2.78;;
61108;SDS011;46995;55.740;37.402;2022-12-18T12:18:02;2.30;;;1.17;;
61108;SDS011;46995;55.740;37.402;2022-12-18T12:27:01;3.97;;;2.03;;
61108;SDS011;46995;55.740;37.402;2022-12-18T12:30:00;3.00;;;1.67;;
61108;SDS011;46995;55.740;37.402;2022-12-18T12:32:40;3.30;;;2.15;;
61108;SDS011;46995;55.740;37.402;2022-12-18T12:40:25;3.00;;;1.30;;
61108;SDS011;46995;55.740;37.402;2022-12-18T12:42:58;2.67;;;1.38;;
61108;SDS011;46995;55.740;37.402;2022-12-18T12:45:54;4.20;;;2.60;;
61108;SDS011;46995;55.740;37.402;2022-12-18T12:53:46;4.55;;;1.63;;
61108;SDS011;46995;55.740;37.402;2022-12-18T12:56:13;4.45;;;1.67;;
61108;SDS011;46995;55.740;37.402;2022-12-18T13:01:53;4.80;;;2.45;;
61108;SDS011;46995;55.740;37.402;2022-12-18T13:04:30;4.80;;;1.98;;
61108;SDS011;46995;55.740;37.402;2022-12-18T13:07:18;6.03;;;3.17;;
61108;SDS011;46995;55.740;37.402;2022-12-18T13:10:12;4.32;;;2.58;;
61108;SDS011;46995;55.740;37.402;2022-12-18T13:18:04;5.47;;;2.38;;
61108;SDS011;46995;55.740;37.402;2022-12-18T13:20:37;10.98;;;3.03;;
61108;SDS011;46995;55.740;37.402;2022-12-18T13:23:31;3.95;;;1.35;;
61108;SDS011;46995;55.740;37.402;2022-12-18T13:31:14;3.72;;;1.73;;
61108;SDS011;46995;55.740;37.402;2022-12-18T13:34:09;13.93;;;5.75;;
61108;SDS011;46995;55.740;37.402;2022-12-18T13:36:51;4.00;;;1.70;;
61108;SDS011;46995;55.740;37.402;2022-12-18T13:44:35;7.38;;;3.38;;
61108;SDS011;46995;55.740;37.402;2022-12-18T13:47:03;7.80;;;2.45;;
61108;SDS011;46995;55.740;37.402;2022-12-18T13:52:14;5.72;;;2.20;;
61108;SDS011;46995;55.740;37.402;2022-12-18T13:54:45;7.60;;;3.42;;
61108;SDS011;46995;55.740;37.402;2022-12-18T13:57:26;7.57;;;3.40;;
61108;SDS011;46995;55.740;37.402;2022-12-18T13:59:54;8.43;;;3.13;;
61108;SDS011;46995;55.740;37.402;2022-12-18T14:02:23;2.35;;;1.15;;
61108;SDS011;46995;55.740;37.402;2022-12-18T14:04:50;6.88;;;3.00;;
61108;SDS011;46995;55.740;37.402;2022-12-18T14:07:22;1.83;;;1.25;;
61108;SDS011;46995;55.740;37.402;2022-12-18T14:09:54;11.85;;;4.75;;
61108;SDS011;46995;55.740;37.402;2022-12-18T14:12:24;5.15;;;1.48;;
61108;SDS011;46995;55.740;37.402;2022-12-18T14:20:23;8.65;;;3.05;;
61108;SDS011;46995;55.740;37.402;2022-12-18T14:22:51;5.90;;;3.05;;
61108;SDS011;46995;55.740;37.402;2022-12-18T14:25:21;12.25;;;3.67;;
61108;SDS011;46995;55.740;37.402;2022-12-18T14:27:53;7.78;;;5.00;;
61108;SDS011;46995;55.740;37.402;2022-12-18T14:30:26;5.90;;;3.22;;
61108;SDS011;46995;55.740;37.402;2022-12-18T14:33:04;4.05;;;1.58;;
61108;SDS011;46995;55.740;37.402;2022-12-18T14:35:35;4.22;;;2.03;;
61108;SDS011;46995;55.740;37.402;2022-12-18T14:38:11;4.60;;;2.20;;
61108;SDS011;46995;55.740;37.402;2022-12-18T14:40:44;9.27;;;3.00;;
61108;SDS011;46995;55.740;37.402;2022-12-18T14:43:10;4.90;;;2.90;;
61108;SDS011;46995;55.740;37.402;2022-12-18T14:45:43;6.55;;;3.17;;
61108;SDS011;46995;55.740;37.402;2022-12-18T14:50:39;6.85;;;2.45;;
61108;SDS011;46995;55.740;37.402;2022-12-18T14:59:06;6.13;;;3.55;;
61108;SDS011;46995;55.740;37.402;2022-12-18T15:02:03;4.45;;;2.67;;
61108;SDS011;46995;55.740;37.402;2022-12-18T15:04:40;3.40;;;2.00;;
61108;SDS011;46995;55.740;37.402;2022-12-18T15:09:47;7.13;;;4.32;;
61108;SDS011;46995;55.740;37.402;2022-12-18T15:20:32;3.72;;;1.88;;
61108;SDS011;46995;55.740;37.402;2022-12-18T15:23:04;3.10;;;1.65;;
61108;SDS011;46995;55.740;37.402;2022-12-18T15:25:32;5.03;;;3.15;;
61108;SDS011;46995;55.740;37.402;2022-12-18T15:28:02;7.45;;;3.30;;
61108;SDS011;46995;55.740;37.402;2022-12-18T15:30:28;6.80;;;2.90;;
61108;SDS011;46995;55.740;37.402;2022-12-18T15:33:40;6.43;;;2.85;;
61108;SDS011;46995;55.740;37.402;2022-12-18T15:36:12;2.08;;;0.82;;
61108;SDS011;46995;55.740;37.402;2022-12-18T15:38:40;4.65;;;2.53;;
61108;SDS011;46995;55.740;37.402;2022-12-18T15:41:13;4.15;;;1.70;;
61108;SDS011;46995;55.740;37.402;2022-12-18T15:43:43;3.28;;;1.92;;
61108;SDS011;46995;55.740;37.402;2022-12-18T15:46:14;5.32;;;2.45;;
61108;SDS011;46995;55.740;37.402;2022-12-18T15:48:43;5.32;;;3.08;;
61108;SDS011;46995;55.740;37.402;2022-12-18T15:51:44;3.10;;;1.35;;
61108;SDS011;46995;55.740;37.402;2022-12-18T15:54:04;3.08;;;1.70;;
61108;SDS011;46995;55.740;37.402;2022-12-18T15:56:34;4.97;;;2.28;;
61108;SDS011;46995;55.740;37.402;2022-12-18T15:59:19;3.63;;;1.77;;
61108;SDS011;46995;55.740;37.402;2022-12-18T16:01:47;4.22;;;2.72;;
61108;SDS011;46995;55.740;37.402;2022-12-18T16:04:15;4.38;;;2.13;;
61108;SDS011;46995;55.740;37.402;2022-12-18T16:06:42;2.22;;;1.23;;
61108;SDS011;46995;55.740;37.402;2022-12-18T16:09:08;4.80;;;2.70;;
61108;SDS011;46995;55.740;37.402;2022-12-18T16:11:35;8.93;;;4.15;;
61108;SDS011;46995;55.740;37.402;2022-12-18T16:14:18;5.70;;;3.25;;
61108;SDS011;46995;55.740;37.402;2022-12-18T16:16:46;7.75;;;2.83;;
61108;SDS011;46995;55.740;37.402;2022-12-18T16:19:17;3.35;;;1.83;;
61108;SDS011;46995;55.740;37.402;2022-12-18T16:24:13;8.80;;;2.08;;
61108;SDS011;46995;55.740;37.402;2022-12-18T16:26:44;1.83;;;0.98;;
61108;SDS011;46995;55.740;37.402;2022-12-18T16:29:15;6.15;;;3.75;;
61108;SDS011;46995;55.740;37.402;2022-12-18T16:31:41;5.50;;;2.47;;
61108;SDS011;46995;55.740;37.402;2022-12-18T16:36:48;5.07;;;2.40;;
61108;SDS011;46995;55.740;37.402;2022-12-18T16:39:16;4.38;;;1.95;;
61108;SDS011;46995;55.740;37.402;2022-12-18T16:41:43;5.47;;;3.05;;
61108;SDS011;46995;55.740;37.402;2022-12-18T16:44:09;5.75;;;3.55;;
61108;SDS011;46995;55.740;37.402;2022-12-18T16:46:35;5.25;;;2.78;;
61108;SDS011;46995;55.740;37.402;2022-12-18T16:49:04;9.18;;;3.67;;
61108;SDS011;46995;55.740;37.402;2022-12-18T16:51:30;3.58;;;2.28;;
61108;SDS011;46995;55.740;37.402;2022-12-18T16:53:56;4.57;;;3.25;;
61108;SDS011;46995;55.740;37.402;2022-12-18T16:56:22;3.13;;;1.70;;
61108;SDS011;46995;55.740;37.402;2022-12-18T16:58:50;5.30;;;3.30;;
61108;SDS011;46995;55.740;37.402;2022-12-18T17:01:20;4.50;;;2.10;;
61108;SDS011;46995;55.740;37.402;2022-12-18T17:03:50;7.93;;;4.38;;
61108;SDS011;46995;55.740;37.402;2022-12-18T17:06:18;5.25;;;2.83;;
61108;SDS011;46995;55.740;37.402;2022-12-18T17:08:44;3.28;;;1.35;;
61108;SDS011;46995;55.740;37.402;2022-12-18T17:11:10;1.77;;;1.35;;
61108;SDS011;46995;55.740;37.402;2022-12-18T17:13:36;5.80;;;1.10;;
61108;SDS011;46995;55.740;37.402;2022-12-18T17:16:05;4.43;;;2.22;;